createdAt,value
2023-01-23T00:02:10.989Z,9.77
2023-01-23T00:04:38.311Z,12.63
2023-01-23T00:07:05.465Z,8.45
2023-01-23T00:09:32.607Z,12.18
2023-01-23T00:11:59.815Z,11.70
2023-01-23T00:14:26.978Z,11.23
2023-01-23T00:16:54.184Z,11.10
2023-01-23T00:19:21.371Z,11.18
2023-01-23T00:21:48.486Z,11.80
2023-01-23T00:24:15.611Z,11.88
2023-01-23T00:26:42.734Z,10.52
2023-01-23T00:29:10.001Z,9.75
2023-01-23T00:31:37.998Z,11.65
2023-01-23T00:34:06.561Z,10.52
2023-01-23T00:36:38.320Z,12.02
2023-01-23T00:39:07.003Z,10.60
2023-01-23T00:41:34.404Z,10.43
2023-01-23T00:44:01.872Z,10.40
2023-01-23T00:46:29.077Z,8.70
2023-01-23T00:48:56.218Z,9.50
2023-01-23T00:51:23.517Z,9.82
2023-01-23T00:53:50.712Z,9.90
2023-01-23T00:56:17.863Z,8.32
2023-01-23T00:58:45.463Z,9.07
2023-01-23T01:01:13.835Z,9.00
2023-01-23T01:03:40.988Z,9.05
2023-01-23T01:06:08.158Z,7.60
2023-01-23T01:08:35.531Z,8.05
2023-01-23T01:11:02.675Z,7.53
2023-01-23T01:13:30.656Z,6.60
2023-01-23T01:15:58.132Z,7.05
2023-01-23T01:18:25.319Z,7.35
2023-01-23T01:20:52.459Z,7.07
2023-01-23T05:04:43.881Z,13.88
2023-01-23T05:07:12.262Z,13.60
2023-01-23T05:09:40.301Z,14.80
2023-01-23T05:12:07.823Z,15.40
2023-01-23T05:14:34.994Z,16.88
2023-01-23T05:17:02.127Z,16.95
2023-01-23T05:19:29.283Z,16.98
2023-01-23T05:21:56.416Z,18.65
2023-01-23T05:24:23.479Z,18.33
2023-01-23T05:26:50.684Z,22.00
2023-01-23T05:29:17.822Z,20.45
2023-01-23T05:31:44.931Z,19.65
2023-01-23T05:34:12.139Z,21.25
2023-01-23T05:36:39.227Z,21.88
2023-01-23T05:39:06.417Z,19.65
2023-01-23T05:41:33.628Z,20.67
2023-01-23T05:44:00.709Z,16.50
2023-01-23T05:46:27.892Z,18.42
2023-01-23T05:48:55.080Z,18.50
2023-01-23T05:51:23.293Z,16.80
2023-01-23T05:53:50.504Z,15.00
2023-01-23T05:56:17.672Z,16.50
2023-01-23T05:58:44.790Z,16.20
2023-01-23T06:01:11.862Z,16.15
2023-01-23T06:03:39.039Z,15.57
2023-01-23T06:06:06.263Z,15.00
2023-01-23T06:08:33.431Z,15.38
2023-01-23T06:11:00.716Z,14.68
2023-01-23T06:13:28.326Z,15.85
2023-01-23T06:15:55.799Z,14.60
2023-01-23T06:18:23.108Z,12.80
2023-01-23T06:20:50.175Z,12.95
2023-01-23T06:23:17.360Z,11.45
2023-01-23T06:25:44.562Z,12.73
2023-01-23T06:28:11.684Z,12.00
2023-01-23T06:30:38.784Z,11.57
2023-01-23T06:33:06.080Z,11.75
2023-01-23T06:35:33.218Z,11.18
2023-01-23T06:38:00.279Z,12.07
2023-01-23T06:40:27.455Z,11.00
2023-01-23T06:42:57.708Z,10.52
2023-01-23T06:45:24.878Z,10.95
2023-01-23T06:47:55.062Z,10.43
2023-01-23T06:50:22.445Z,9.45
2023-01-23T06:52:49.702Z,10.15
2023-01-23T06:55:16.926Z,10.60
2023-01-23T06:57:44.064Z,10.15
2023-01-23T07:00:11.480Z,8.80
2023-01-23T07:02:39.628Z,9.57
2023-01-23T07:05:06.983Z,10.30
2023-01-23T07:07:34.112Z,10.00
2023-01-23T07:10:01.254Z,10.50
2023-01-23T07:12:28.320Z,11.27
2023-01-23T07:14:55.457Z,10.20
2023-01-23T07:17:22.612Z,10.63
2023-01-23T07:19:49.733Z,10.85
2023-01-23T07:22:20.829Z,10.15
2023-01-23T07:24:48.034Z,9.70
2023-01-23T07:27:15.569Z,10.73
2023-01-23T07:29:43.156Z,9.48
2023-01-23T07:32:11.267Z,10.93
2023-01-23T07:34:38.533Z,10.80
2023-01-23T07:37:05.668Z,11.82
2023-01-23T07:39:33.007Z,9.48
2023-01-23T07:42:00.297Z,10.82
2023-01-23T07:44:27.539Z,9.82
2023-01-23T07:46:54.895Z,10.93
2023-01-23T07:49:22.117Z,10.88
2023-01-23T07:51:49.273Z,10.45
2023-01-23T07:54:16.504Z,9.13
2023-01-23T07:56:43.627Z,9.63
2023-01-23T07:59:12.052Z,10.55
2023-01-23T08:01:39.232Z,9.70
2023-01-23T08:04:06.546Z,10.65
2023-01-23T08:06:34.437Z,13.48
2023-01-23T08:09:01.631Z,12.50
2023-01-23T08:11:28.765Z,10.85
2023-01-23T08:13:55.938Z,11.52
2023-01-23T08:16:23.347Z,11.80
2023-01-23T08:18:50.732Z,11.85
2023-01-23T08:21:17.867Z,9.30
2023-01-23T08:23:46.444Z,8.45
2023-01-23T08:26:14.828Z,8.40
2023-01-23T08:28:43.338Z,8.13
2023-01-23T08:31:12.187Z,7.00
2023-01-23T08:33:40.030Z,7.68
2023-01-23T08:36:10.154Z,7.80
2023-01-23T08:38:38.462Z,6.90
2023-01-23T08:41:06.478Z,6.10
2023-01-23T08:43:34.004Z,5.35
2023-01-23T08:46:01.574Z,5.88
2023-01-23T08:48:29.482Z,6.78
2023-01-23T08:51:01.813Z,8.60
2023-01-23T08:53:29.516Z,7.60
2023-01-23T08:56:03.698Z,8.25
2023-01-23T08:58:30.949Z,7.03
2023-01-23T09:00:58.538Z,7.90
2023-01-23T09:03:25.784Z,6.47
2023-01-23T09:05:53.361Z,7.20
2023-01-23T09:08:20.534Z,6.30
2023-01-23T09:10:47.793Z,5.80
2023-01-23T09:13:14.978Z,6.28
2023-01-23T09:15:42.151Z,6.80
2023-01-23T09:18:09.413Z,6.45
2023-01-23T09:20:38.132Z,6.03
2023-01-23T09:23:05.474Z,5.95
2023-01-23T09:25:32.674Z,6.38
2023-01-23T09:27:59.859Z,6.72
2023-01-23T09:30:27.054Z,6.32
2023-01-23T09:32:54.399Z,7.32
2023-01-23T09:35:23.308Z,9.52
2023-01-23T09:37:59.954Z,7.13
2023-01-23T09:40:46.726Z,6.72
2023-01-23T09:43:36.337Z,7.30
2023-01-23T09:46:06.294Z,7.82
2023-01-23T09:48:39.668Z,6.30
2023-01-23T09:51:12.989Z,7.57
2023-01-23T09:53:42.610Z,8.73
2023-01-23T09:56:09.773Z,8.68
2023-01-23T09:58:39.266Z,8.95
2023-01-23T10:01:06.465Z,7.47
2023-01-23T10:03:33.629Z,6.95
2023-01-23T10:06:10.078Z,6.82
2023-01-23T10:08:55.981Z,6.68
2023-01-23T10:11:38.797Z,7.60
2023-01-23T10:14:20.958Z,8.10
2023-01-23T10:16:56.092Z,7.57
2023-01-23T13:25:44.312Z,10.63
2023-01-23T13:28:44.846Z,9.27
2023-01-23T13:33:40.433Z,8.48
2023-01-23T13:36:33.802Z,8.88
2023-01-23T13:39:00.936Z,9.35
2023-01-23T13:41:29.134Z,9.90
2023-01-23T13:44:05.048Z,9.32
2023-01-23T14:21:42.509Z,12.10
2023-01-23T14:24:23.715Z,10.90
2023-01-23T14:26:52.226Z,9.68
2023-01-23T14:29:23.692Z,10.75
2023-01-23T14:34:20.804Z,9.50
2023-01-23T14:36:50.948Z,10.50
2023-01-23T14:39:23.010Z,10.13
2023-01-23T14:41:51.195Z,11.32
2023-01-23T14:44:20.667Z,10.15
2023-01-23T14:46:50.943Z,12.55
2023-01-23T14:49:21.104Z,10.80
2023-01-23T14:52:04.440Z,9.68
2023-01-23T14:54:33.344Z,10.55
2023-01-23T14:57:05.570Z,10.70
2023-01-23T14:59:37.936Z,10.93
2023-01-23T15:02:29.163Z,11.20
2023-01-23T15:05:15.303Z,10.85
2023-01-23T15:07:54.927Z,10.95
2023-01-23T15:10:23.959Z,11.32
2023-01-23T15:12:53.186Z,10.98
2023-01-23T15:15:21.770Z,10.23
2023-01-23T15:17:49.950Z,10.43
2023-01-23T15:20:40.633Z,11.80
2023-01-23T15:23:21.689Z,11.03
2023-01-23T15:25:57.509Z,9.90
2023-01-23T15:28:46.712Z,11.60
2023-01-23T15:31:33.619Z,11.75
2023-01-23T15:34:16.149Z,11.05
2023-01-23T15:37:05.470Z,12.30
2023-01-23T15:39:38.018Z,11.63
2023-01-23T15:42:14.434Z,11.32
2023-01-23T15:44:42.916Z,11.23
2023-01-23T15:47:10.510Z,11.05
2023-01-23T15:49:38.884Z,10.65
2023-01-23T15:52:14.961Z,11.32
2023-01-23T15:54:42.176Z,11.75
2023-01-23T15:57:11.572Z,11.25
2023-01-23T15:59:38.777Z,11.60
2023-01-23T16:02:08.176Z,12.10
2023-01-23T16:04:36.558Z,10.48
2023-01-23T16:07:06.387Z,10.52
2023-01-23T16:09:36.567Z,11.15
2023-01-23T16:12:03.793Z,11.90
2023-01-23T16:14:31.039Z,11.30
2023-01-23T16:17:04.712Z,12.10
2023-01-23T16:19:38.817Z,11.40
2023-01-23T16:22:06.000Z,11.25
2023-01-23T16:24:37.940Z,11.55
2023-01-23T16:27:05.300Z,11.93
2023-01-23T16:29:33.566Z,12.43
2023-01-23T16:32:02.355Z,12.27
2023-01-23T16:34:29.983Z,13.68
2023-01-23T16:36:58.034Z,11.95
2023-01-23T16:39:26.760Z,13.38
2023-01-23T16:41:54.983Z,11.40
2023-01-23T16:44:23.937Z,12.32
2023-01-23T16:46:52.333Z,12.75
2023-01-23T16:49:20.315Z,12.50
2023-01-23T16:51:58.212Z,12.57
2023-01-23T16:54:26.439Z,11.57
2023-01-23T16:56:55.279Z,13.30
2023-01-23T16:59:28.789Z,12.90
2023-01-23T17:01:56.004Z,12.85
2023-01-23T17:04:23.212Z,13.27
2023-01-23T17:06:50.859Z,13.15
2023-01-23T17:09:18.072Z,14.00
2023-01-23T17:11:45.201Z,14.05
2023-01-23T17:14:17.400Z,13.55
2023-01-23T17:16:45.092Z,14.55
2023-01-23T17:19:32.422Z,13.85
2023-01-23T17:22:00.688Z,12.43
2023-01-23T17:24:28.013Z,12.85
2023-01-23T17:26:55.468Z,13.40
2023-01-23T17:29:23.063Z,15.10
2023-01-23T17:31:50.434Z,15.43
2023-01-23T17:34:25.869Z,14.88
2023-01-23T17:36:55.012Z,15.05
2023-01-23T17:39:22.233Z,14.32
2023-01-23T17:41:51.402Z,14.27
2023-01-23T17:44:18.592Z,14.80
2023-01-23T17:46:47.242Z,15.90
2023-01-23T17:49:26.749Z,13.57
2023-01-23T17:51:54.754Z,14.90
2023-01-23T17:54:22.397Z,14.48
2023-01-23T17:56:49.633Z,17.98
2023-01-23T17:59:16.779Z,14.73
2023-01-23T18:01:43.959Z,17.63
2023-01-23T18:04:17.317Z,17.35
2023-01-23T18:06:44.707Z,15.35
2023-01-23T18:09:12.178Z,16.42
2023-01-23T18:11:41.066Z,16.50
2023-01-23T18:14:08.215Z,16.45
2023-01-23T18:16:41.645Z,16.30
2023-01-23T18:19:19.347Z,15.52
2023-01-23T18:21:47.644Z,17.65
2023-01-23T18:24:19.593Z,15.93
2023-01-23T18:26:54.568Z,16.67
2023-01-23T18:29:24.868Z,16.35
2023-01-23T18:31:59.586Z,16.70
2023-01-23T18:34:45.415Z,16.73
2023-01-23T18:37:24.861Z,16.50
2023-01-23T18:39:52.003Z,16.88
2023-01-23T18:42:30.004Z,17.08
2023-01-23T18:44:59.871Z,16.27
2023-01-23T18:47:27.335Z,16.77
2023-01-23T18:49:54.733Z,17.17
2023-01-23T18:52:36.754Z,15.65
2023-01-23T18:55:13.214Z,17.05
2023-01-23T18:57:55.393Z,17.38
2023-01-23T19:00:24.834Z,16.58
2023-01-23T19:02:55.267Z,17.13
2023-01-23T19:05:25.611Z,15.57
2023-01-23T19:07:52.870Z,18.10
2023-01-23T19:10:21.710Z,16.60
2023-01-23T19:12:52.122Z,16.83
2023-01-23T19:15:42.275Z,17.17
2023-01-23T19:18:09.563Z,17.02
2023-01-23T19:20:43.032Z,17.63
2023-01-23T19:23:20.251Z,16.67
2023-01-23T19:25:48.091Z,16.27
2023-01-23T19:28:15.922Z,16.30
2023-01-23T19:30:43.849Z,16.70
2023-01-23T19:33:17.459Z,17.38
2023-01-23T19:35:45.311Z,17.63
2023-01-23T19:38:12.468Z,17.63
2023-01-23T19:40:40.001Z,15.30
2023-01-23T19:43:14.449Z,17.15
2023-01-23T19:45:42.281Z,17.05
2023-01-23T19:48:09.589Z,16.80
2023-01-23T19:50:36.764Z,17.02
2023-01-23T19:53:04.028Z,18.63
2023-01-23T19:55:35.873Z,17.05
2023-01-23T19:58:03.217Z,17.67
2023-01-23T20:00:32.781Z,16.08
2023-01-23T20:03:00.028Z,15.38
2023-01-23T20:05:27.727Z,15.80
2023-01-23T20:07:56.989Z,15.98
2023-01-23T20:10:24.468Z,16.00
2023-01-23T20:12:52.568Z,15.43
2023-01-23T20:15:21.146Z,16.40
2023-01-23T20:17:48.680Z,16.23
2023-01-23T20:20:16.043Z,15.65
2023-01-23T20:22:43.568Z,14.80
2023-01-23T20:25:12.216Z,15.35
2023-01-23T20:27:39.903Z,14.48
2023-01-23T20:30:08.561Z,15.65
2023-01-23T20:32:35.762Z,14.70
2023-01-23T20:35:02.959Z,15.05
2023-01-23T20:37:30.280Z,14.35
2023-01-23T20:39:57.663Z,14.10
2023-01-23T20:42:25.123Z,14.02
2023-01-23T20:44:52.321Z,15.15
2023-01-23T20:47:19.551Z,13.25
2023-01-23T20:49:46.855Z,14.27
2023-01-23T20:52:32.766Z,13.50
2023-01-23T20:54:59.949Z,13.65
2023-01-23T20:57:47.161Z,15.00
2023-01-23T21:00:14.554Z,14.02
2023-01-23T21:02:41.758Z,13.50
2023-01-23T21:05:09.013Z,14.20
2023-01-23T21:07:36.197Z,13.93
2023-01-23T21:10:03.400Z,13.80
2023-01-23T21:12:30.653Z,14.30
2023-01-23T21:14:57.860Z,13.13
2023-01-23T21:17:25.481Z,11.65
2023-01-23T21:19:52.784Z,12.35
2023-01-23T21:22:19.984Z,11.20
2023-01-23T21:24:47.133Z,10.10
2023-01-23T21:27:14.386Z,10.93
2023-01-23T21:29:41.537Z,10.80
2023-01-23T21:32:08.847Z,11.27
2023-01-23T21:34:36.117Z,11.68
2023-01-23T21:37:07.107Z,13.20
2023-01-23T21:39:34.354Z,10.63
2023-01-23T21:42:01.527Z,11.52
2023-01-23T21:44:28.755Z,8.30
2023-01-23T21:46:55.898Z,11.15
2023-01-23T21:49:23.210Z,9.05
2023-01-23T21:51:50.332Z,10.85
2023-01-23T21:54:17.526Z,12.02
2023-01-23T21:56:44.742Z,12.18
2023-01-23T21:59:12.000Z,11.38
2023-01-23T22:01:46.522Z,10.82
2023-01-23T22:04:15.243Z,10.93
2023-01-23T22:06:43.255Z,11.13
2023-01-23T22:09:11.813Z,8.05
2023-01-23T22:11:38.945Z,11.60
2023-01-23T22:14:06.070Z,12.35
2023-01-23T22:16:47.484Z,12.85
2023-01-23T22:19:16.191Z,11.80
2023-01-23T22:21:44.402Z,11.27
2023-01-23T22:24:11.626Z,11.40
2023-01-23T22:26:38.970Z,10.27
2023-01-23T22:29:06.166Z,10.68
2023-01-23T22:31:33.399Z,13.23
2023-01-23T22:34:00.635Z,12.45
2023-01-23T22:36:27.861Z,11.40
2023-01-23T22:38:55.305Z,12.02
2023-01-23T22:41:23.034Z,11.98
2023-01-23T22:43:54.476Z,11.82
2023-01-23T22:48:48.810Z,12.10
2023-01-23T22:51:17.755Z,11.63
2023-01-23T22:53:45.019Z,12.15
2023-01-23T22:56:12.899Z,10.73
2023-01-23T22:58:40.094Z,12.02
2023-01-23T23:01:07.298Z,11.85
2023-01-23T23:03:35.246Z,13.23
2023-01-23T23:06:04.313Z,11.93
2023-01-23T23:08:31.785Z,13.18
2023-01-23T23:10:59.770Z,12.38
2023-01-23T23:13:27.268Z,11.70
2023-01-23T23:15:54.406Z,12.52
2023-01-23T23:18:21.609Z,12.02
2023-01-23T23:20:49.171Z,11.55
2023-01-23T23:23:16.589Z,11.30
2023-01-23T23:25:43.724Z,11.80
2023-01-23T23:28:10.940Z,13.02
2023-01-23T23:30:38.125Z,12.02
2023-01-23T23:33:05.312Z,10.98
2023-01-23T23:35:32.535Z,12.02
2023-01-23T23:37:59.669Z,13.00
2023-01-23T23:40:26.836Z,11.65
2023-01-23T23:42:54.096Z,12.70
2023-01-23T23:45:21.482Z,11.82
2023-01-23T23:47:48.833Z,11.88
2023-01-23T23:50:16.044Z,12.02
2023-01-23T23:52:43.226Z,13.10
